Tonopah, Nevada Weather observations

Data are for observation ending at time listed.
 Day   Time    Ave.   Ave.  Ave.  Vector   Max.   Stn.    Total    Solar   Ave.  
  of    of     Air    Rel.  Wind   Wind    Wind   Baro.  Precip.   Rad.    Soil  
Year   Day     Temp.  Hum.  Speed  Dir.    Gust   Pres.                    Temp. 
2016   (PST)    F      %     mph   deg.    mph     mb.     in.     W/m2     F   
------------------------------------------------------------------------------
  42   16:20   57.1    24    1.8   188      3.2   819.5    0.00     152    43.4
  42   16:30   54.6    27    2.7   165      3.5   819.4    0.00     100    43.4
  42   16:40   52.5    29    2.7   167      3.5   819.5    0.00      52    43.3
  42   16:50   51.5    27    3.0   148      3.8   819.5    0.00      77    43.2
  42   17:00   50.5    28    2.3   179      3.3   819.4    0.00      31    43.1
  42   17:10   49.2    29    3.8   149      4.8   819.4    0.00      20    43.0
  42   17:20   49.5    27    3.2   166      4.4   819.5    0.00      12    42.9
  42   17:30   49.9    25    4.2   171      5.6   819.4    0.00       4    42.7
  42   17:40   49.8    25    4.7   171      7.0   819.4    0.00       1    42.6
  42   17:50   49.5    25    4.7   170      6.8   819.5    0.00       0    42.4
  42   18:00   49.2    26    4.4   159      5.6   819.6    0.00       0    42.3
  42   18:10   48.0    27    4.4   160      5.9   819.7    0.00       0    42.1
  42   18:20   47.9    28    3.8   168      4.9   819.7    0.00       0    41.9
  42   18:30   46.0    32    4.4   153      5.9   819.8    0.00       0    41.8
  42   18:40   46.5    30    5.6   155      6.8   819.8    0.00       0    41.6
  42   18:50   46.9    30    6.2   153      7.9   819.7    0.00       0    41.4
  42   19:00   46.4    33    6.3   150      8.0   819.7    0.00       0    41.3
  42   19:10   45.6    34    6.8   147      8.4   819.7    0.00       0    41.1
  42   19:20   45.7    32    6.0   146      8.2   819.7    0.00       0    41.0
  42   19:30   46.2    31    5.3   141      7.1   819.8    0.00       0    40.8
  42   19:40   45.2    36    6.6   149      7.7   819.8    0.00       0    40.6
  42   19:50   46.0    33    6.8   152      9.3   819.8    0.00       0    40.5
  42   20:00   46.9    31    6.9   159     10.1   819.8    0.00       0    40.4
  42   20:10   46.5    30    6.1   150      8.3   819.9    0.00       0    40.2
  42   20:20   46.2    29    6.1   153      8.1   819.9    0.00       0    40.1
  42   20:30   46.7    30    4.9   157      6.3   820.0    0.00       0    40.0
  42   20:40   46.8    31    5.1   154      7.4   820.0    0.00       0    39.8
  42   20:50   46.0    34    5.0   149      7.4   820.0    0.00       0    39.7
  42   21:00   46.5    33    5.0   140      7.9   820.0    0.00       0    39.6
  42   21:10   47.8    31    5.5   136      7.9   820.0    0.00       0    39.5
  42   21:20   48.3    31    5.2   135      7.6   820.0    0.00       0    39.3
  42   21:30   45.7    36    5.8   150      7.5   820.0    0.00       0    39.2
  42   21:40   44.6    39    5.8   148      7.4   819.9    0.00       0    39.1
  42   21:50   44.9    38    5.4   156      8.8   820.0    0.00       0    39.1
  42   22:00   45.2    39    5.1   157      7.7   820.0    0.00       0    39.0
  42   22:10   44.2    41    4.5   158      7.2   820.0    0.00       0    38.8
  42   22:20   45.6    37    5.3   157      7.8   820.0    0.00       0    38.7
  42   22:30   45.7    36    4.3   157      6.5   820.0    0.00       0    38.6
  42   22:40   45.1    37    4.2   150      6.3   820.0    0.00       0    38.5
  42   22:50   44.9    36    4.8   153      7.9   820.0    0.00       0    38.4
  42   23:00   45.4    35    4.5   168      6.5   820.0    0.00       0    38.3
  42   23:10   45.0    36    5.0   156      6.9   820.0    0.00       0    38.2
  42   23:20   45.5    35    5.4   151      8.7   820.1    0.00       0    38.1
  42   23:30   45.1    36    5.5   149      8.0   820.0    0.00       0    38.1
  42   23:40   44.0    38    4.8   157      6.2   820.0    0.00       0    38.0
  42   23:50   44.2    37    5.0   148      7.2   820.0    0.00       0    37.9
  43    0:00   43.9    38    5.2   161      7.0   820.0    0.00       0    37.8
  43    0:10   44.6    37    4.6   136      6.5   819.9    0.00       0    37.7
  43    0:20   44.3    38    5.8   167     10.9   819.9    0.00       0    37.6
  43    0:30   45.2    36    5.5   133     10.4   819.9    0.00       0    37.6
  43    0:40   45.3    36    6.0   131      9.9   819.8    0.00       0    37.5
  43    0:50   44.2    39    5.4   144      7.4   819.8    0.00       0    37.4
  43    1:00   42.9    42    5.8   149      8.5   819.8    0.00       0    37.3
  43    1:10   44.2    40    6.3   142      9.9   819.7    0.00       0    37.3
  43    1:20   42.9    42    5.2   153      8.8   819.7    0.00       0    37.2
  43    1:30   45.2    38    5.5   137      9.7   819.6    0.00       0    37.1
  43    1:40   45.7    36    4.5   139      8.1   819.6    0.00       0    37.0
  43    1:50   45.1    38    3.7   167      7.3   819.7    0.00       0    37.0
  43    2:00   44.1    39    3.9   180      6.1   819.8    0.00       0    36.9
  43    2:10   43.5    40    2.5   159      4.7   819.8    0.00       0    36.9
  43    2:20   43.9    39    3.9   161      6.4   819.7    0.00       0    36.8
  43    2:30   43.4    40    4.3   176      6.1   819.7    0.00       0    36.7
  43    2:40   44.2    37    4.9   179      8.9   819.7    0.00       0    36.7
  43    2:50   45.6    35    4.1   158      7.5   819.6    0.00       0    36.6
  43    3:00   43.8    38    4.6   164      6.9   819.6    0.00       0    36.5
  43    3:10   42.2    42    4.1   163      6.0   819.5    0.00       0    36.4
  43    3:20   41.1    44    2.2   108      3.6   819.4    0.00       0    36.4
  43    3:30   40.0    47    2.4   136      4.6   819.4    0.00       0    36.3
  43    3:40   41.6    43    2.9   160      4.0   819.4    0.00       0    36.2
  43    3:50   41.4    44    2.6   148      3.9   819.4    0.00       0    36.1
  43    4:00   40.4    46    2.1   132      3.4   819.5    0.00       0    36.0
  43    4:10   40.1    47    2.2   118      3.5   819.5    0.00       0    36.0
  43    4:20   39.1    49    2.3   101      3.1   819.5    0.00       0    35.9
  43    4:30   38.8    50    3.1   110      4.5   819.5    0.00       0    35.8
  43    4:40   38.4    50    3.3   130      4.4   819.6    0.00       0    35.7
  43    4:50   37.5    53    2.8   130      4.7   819.6    0.00       0    35.6
  43    5:00   36.0    57    3.1   118      4.2   819.5    0.00       0    35.5
  43    5:10   37.4    53    2.9   119      4.0   819.5    0.00       0    35.4
  43    5:20   37.3    54    2.9   132      5.2   819.5    0.00       0    35.4
  43    5:30   40.3    46    2.9   164      5.0   819.6    0.00       0    35.3
  43    5:40   38.1    52    2.2   128      3.6   819.6    0.00       0    35.2
  43    5:50   38.1    52    2.3   145      3.3   819.6    0.00       0    35.2
  43    6:00   38.5    51    3.4   136      5.8   819.6    0.00       0    35.1
  43    6:10   41.6    44    5.4   146      8.3   819.7    0.00       0    35.1
  43    6:20   43.1    42    4.6   144      6.3   819.7    0.00       0    35.0
  43    6:30   42.4    43    1.6   160      4.7   819.8    0.00       0    35.0
  43    6:40   41.5    43    0.8   192      2.9   819.8    0.00       4    34.9
  43    6:50   41.5    43    2.2   174      3.5   819.8    0.00       6    34.9
  43    7:00   42.5    40    2.7   160      4.0   819.8    0.00      15    34.8
  43    7:10   41.3    44    1.3   135      2.9   819.9    0.00      28    34.8
  43    7:20   40.0    47    1.0   279      3.3   820.0    0.00      54    34.8
  43    7:30   40.4    46    1.1   114      2.4   820.1    0.00      86    34.7
  43    7:40   42.3    45    0.9   159      1.8   820.1    0.00     148    34.7
  43    7:50   42.2    45    1.4   232      2.9   820.2    0.00     118    34.7
  43    8:00   43.9    44    0.4   260      1.2   820.2    0.00     171    34.7
  43    8:10   45.5    41    0.5   157      1.5   820.2    0.00     205    34.7
  43    8:20   48.0    37    0.0     0      0.0   820.3    0.00     243    34.6
  43    8:30   48.1    37    2.5   279      4.9   820.3    0.00     308    34.6
  43    8:40   46.9    39    1.9   271      3.1   820.3    0.00     358    34.7
  43    8:50   47.9    37    1.7   265      3.1   820.3    0.00     346    34.7
  43    9:00   47.9    38    2.6   280      3.9   820.4    0.00     366    34.8
  43    9:10   47.3    40    3.2   271      4.9   820.4    0.00     326    34.9
  43    9:20   47.3    39    3.1   265      4.6   820.4    0.00     384    35.1
  43    9:30   48.5    37    2.2   266      4.2   820.4    0.00     413    35.3
  43    9:40   49.5    35    2.8   255      4.8   820.5    0.00     517    35.5
  43    9:50   51.1    33    1.5   262      3.2   820.4    0.00     519    35.7
  43   10:00   54.4    28    0.7   243      2.8   820.4    0.00     596    36.0
  43   10:10   54.1    29    1.5   257      2.9   820.5    0.00     534    36.3
  43   10:20   54.5    28    1.3   271      2.3   820.4    0.00     459    36.5
  43   10:30   54.3    30    2.5   276      4.9   820.4    0.00     512    36.8
  43   10:40   54.5    33    2.0   296      3.7   820.4    0.00     517    37.1
  43   10:50   54.0    36    2.2   296      3.4   820.3    0.00     520    37.4
  43   11:00   55.1    33    1.5   263      2.6   820.3    0.00     604    37.8
  43   11:10   56.8    28    0.4   252      2.2   820.2    0.00     523    38.1
  43   11:20   54.8    39    4.8   294      7.7   820.2    0.00     571    38.4
  43   11:30   51.8    45    4.1   286      6.6   820.2    0.00     542    38.8
  43   11:40   52.1    44    2.9   290      5.1   820.0    0.00     586    39.2
  43   11:50   53.2    42    1.7   273      3.7   819.9    0.00     516    39.6
  43   12:00   54.4    40    2.2   290      3.5   819.8    0.00     653    39.9
  43   12:10   54.2    42    2.9   274      4.7   819.6    0.00     609    40.3
  43   12:20   54.6    40    1.8   282      3.7   819.5    0.00     667    40.6
  43   12:30   57.1    36    0.8   296      2.4   819.3    0.00     725    41.0
  43   12:40   59.0    30    0.9   169      3.5   819.2    0.00     720    41.4
  43   12:50   59.6    26    1.5   170      3.9   819.1    0.00     738    41.8
  43   13:00   58.5    26    2.2   166      4.5   819.0    0.00     698    42.1
  43   13:10   58.6    26    1.6   164      4.7   818.8    0.00     679    42.5
  43   13:20   58.0    30    2.8   118      5.7   818.6    0.00     632    42.9
  43   13:30   57.1    32    2.8   129      6.3   818.5    0.00     565    43.3
  43   13:40   56.9    32    2.4   136      5.6   818.4    0.00     562    43.7
  43   13:50   57.0    32    2.2   106      5.5   818.4    0.00     453    44.1
  43   14:00   57.3    31    2.1   115      4.5   818.3    0.00     543    44.4
  43   14:10   58.1    31    2.1   131      4.3   818.1    0.00     533    44.7
  43   14:20   57.3    33    3.3   145      6.1   818.1    0.00     454    45.0
  43   14:30   57.1    34    3.5   154      7.5   818.1    0.00     427    45.2
  43   14:40   56.4    33    4.7   146      7.2   818.0    0.00     407    45.5
  43   14:50   55.9    33    4.0   144      6.9   818.1    0.00     345    45.7
  43   15:00   55.6    32    2.8   112      5.3   818.0    0.00     255    45.9
  43   15:10   55.6    32    2.7    99      5.2   818.1    0.00     263    46.1
  43   15:20   55.2    32    3.2    94      5.0   818.0    0.00     234    46.2
  43   15:30   55.1    33    2.8   135      4.3   818.0    0.00     211    46.3
  43   15:40   55.1    32    2.2   156      4.0   818.1    0.00     182    46.4
  43   15:50   55.6    34    1.3   246      4.3   818.1    0.00     174    46.4
  43   16:00   55.7    36    1.9   246      4.2   818.1    0.00     185    46.4
  43   16:10   55.2    38    1.9   236      3.5   818.1    0.00     177    46.4

Return to Tonopah, Nevada graphs page.


Western Regional Climate Center,wrcc@dri.edu